sensor_id;sensor_type;location;lat;lon;timestamp;P1;durP1;ratioP1;P2;durP2;ratioP2
36497;SDS011;22513;51.222;6.480;2023-12-28T00:00:18;0.35;;;0.32;;
36497;SDS011;22513;51.222;6.480;2023-12-28T00:02:43;0.38;;;0.38;;
36497;SDS011;22513;51.222;6.480;2023-12-28T00:05:09;0.30;;;0.30;;
36497;SDS011;22513;51.222;6.480;2023-12-28T00:07:35;0.47;;;0.47;;
36497;SDS011;22513;51.222;6.480;2023-12-28T00:10:01;0.40;;;0.40;;
36497;SDS011;22513;51.222;6.480;2023-12-28T00:12:27;0.30;;;0.30;;
36497;SDS011;22513;51.222;6.480;2023-12-28T00:14:53;0.22;;;0.22;;
36497;SDS011;22513;51.222;6.480;2023-12-28T00:17:18;0.22;;;0.22;;
36497;SDS011;22513;51.222;6.480;2023-12-28T00:19:44;0.30;;;0.30;;
36497;SDS011;22513;51.222;6.480;2023-12-28T00:22:10;0.40;;;0.40;;
36497;SDS011;22513;51.222;6.480;2023-12-28T00:24:35;0.30;;;0.30;;
36497;SDS011;22513;51.222;6.480;2023-12-28T00:27:01;0.30;;;0.30;;
36497;SDS011;22513;51.222;6.480;2023-12-28T00:29:27;0.28;;;0.28;;
36497;SDS011;22513;51.222;6.480;2023-12-28T00:31:54;0.30;;;0.30;;
36497;SDS011;22513;51.222;6.480;2023-12-28T00:34:19;0.30;;;0.30;;
36497;SDS011;22513;51.222;6.480;2023-12-28T00:36:45;0.45;;;0.40;;
36497;SDS011;22513;51.222;6.480;2023-12-28T00:39:10;0.22;;;0.22;;
36497;SDS011;22513;51.222;6.480;2023-12-28T00:41:36;0.32;;;0.32;;
36497;SDS011;22513;51.222;6.480;2023-12-28T00:44:02;0.60;;;0.50;;
36497;SDS011;22513;51.222;6.480;2023-12-28T00:46:27;0.30;;;0.30;;
36497;SDS011;22513;51.222;6.480;2023-12-28T00:48:53;0.45;;;0.30;;
36497;SDS011;22513;51.222;6.480;2023-12-28T00:51:19;0.40;;;0.40;;
36497;SDS011;22513;51.222;6.480;2023-12-28T00:53:46;0.35;;;0.30;;
36497;SDS011;22513;51.222;6.480;2023-12-28T00:56:11;0.40;;;0.40;;
36497;SDS011;22513;51.222;6.480;2023-12-28T00:58:40;0.43;;;0.40;;
36497;SDS011;22513;51.222;6.480;2023-12-28T01:01:08;0.38;;;0.38;;
36497;SDS011;22513;51.222;6.480;2023-12-28T01:03:34;0.40;;;0.40;;
36497;SDS011;22513;51.222;6.480;2023-12-28T01:05:59;0.30;;;0.30;;
36497;SDS011;22513;51.222;6.480;2023-12-28T01:08:25;0.57;;;0.40;;
36497;SDS011;22513;51.222;6.480;2023-12-28T01:10:50;0.40;;;0.40;;
36497;SDS011;22513;51.222;6.480;2023-12-28T01:13:16;0.30;;;0.30;;
36497;SDS011;22513;51.222;6.480;2023-12-28T01:15:42;0.30;;;0.30;;
36497;SDS011;22513;51.222;6.480;2023-12-28T01:18:07;0.77;;;0.47;;
36497;SDS011;22513;51.222;6.480;2023-12-28T01:20:33;0.40;;;0.40;;
36497;SDS011;22513;51.222;6.480;2023-12-28T01:23:00;0.45;;;0.45;;
36497;SDS011;22513;51.222;6.480;2023-12-28T01:25:26;0.30;;;0.30;;
36497;SDS011;22513;51.222;6.480;2023-12-28T01:27:51;0.43;;;0.43;;
36497;SDS011;22513;51.222;6.480;2023-12-28T01:30:17;0.40;;;0.40;;
36497;SDS011;22513;51.222;6.480;2023-12-28T01:32:42;0.30;;;0.30;;
36497;SDS011;22513;51.222;6.480;2023-12-28T01:35:08;0.30;;;0.30;;
36497;SDS011;22513;51.222;6.480;2023-12-28T01:37:33;0.40;;;0.40;;
36497;SDS011;22513;51.222;6.480;2023-12-28T01:39:59;0.43;;;0.43;;
36497;SDS011;22513;51.222;6.480;2023-12-28T01:42:25;0.40;;;0.40;;
36497;SDS011;22513;51.222;6.480;2023-12-28T01:44:51;0.40;;;0.40;;
36497;SDS011;22513;51.222;6.480;2023-12-28T01:47:17;0.30;;;0.30;;
36497;SDS011;22513;51.222;6.480;2023-12-28T01:49:43;0.30;;;0.30;;
36497;SDS011;22513;51.222;6.480;2023-12-28T01:52:09;0.50;;;0.45;;
36497;SDS011;22513;51.222;6.480;2023-12-28T01:54:35;0.40;;;0.40;;
36497;SDS011;22513;51.222;6.480;2023-12-28T01:57:02;0.40;;;0.40;;
36497;SDS011;22513;51.222;6.480;2023-12-28T01:59:29;0.40;;;0.40;;
36497;SDS011;22513;51.222;6.480;2023-12-28T02:01:55;0.52;;;0.52;;
36497;SDS011;22513;51.222;6.480;2023-12-28T02:04:21;0.38;;;0.38;;
36497;SDS011;22513;51.222;6.480;2023-12-28T02:06:55;0.50;;;0.50;;
36497;SDS011;22513;51.222;6.480;2023-12-28T02:09:22;0.65;;;0.55;;
36497;SDS011;22513;51.222;6.480;2023-12-28T02:11:48;0.65;;;0.40;;
36497;SDS011;22513;51.222;6.480;2023-12-28T02:14:14;0.40;;;0.40;;
36497;SDS011;22513;51.222;6.480;2023-12-28T02:16:42;0.30;;;0.30;;
36497;SDS011;22513;51.222;6.480;2023-12-28T02:21:59;0.30;;;0.30;;
36497;SDS011;22513;51.222;6.480;2023-12-28T02:24:25;0.40;;;0.40;;
36497;SDS011;22513;51.222;6.480;2023-12-28T02:26:51;0.43;;;0.40;;
36497;SDS011;22513;51.222;6.480;2023-12-28T02:29:17;0.50;;;0.50;;
36497;SDS011;22513;51.222;6.480;2023-12-28T02:31:45;0.40;;;0.40;;
36497;SDS011;22513;51.222;6.480;2023-12-28T02:34:19;0.40;;;0.40;;
36497;SDS011;22513;51.222;6.480;2023-12-28T02:36:49;0.52;;;0.40;;
36497;SDS011;22513;51.222;6.480;2023-12-28T02:39:16;0.47;;;0.40;;
36497;SDS011;22513;51.222;6.480;2023-12-28T02:41:44;0.45;;;0.45;;
36497;SDS011;22513;51.222;6.480;2023-12-28T02:44:11;0.40;;;0.40;;
36497;SDS011;22513;51.222;6.480;2023-12-28T02:46:37;0.30;;;0.30;;
36497;SDS011;22513;51.222;6.480;2023-12-28T02:49:02;0.30;;;0.30;;
36497;SDS011;22513;51.222;6.480;2023-12-28T02:51:28;0.63;;;0.52;;
36497;SDS011;22513;51.222;6.480;2023-12-28T02:53:53;0.75;;;0.40;;
36497;SDS011;22513;51.222;6.480;2023-12-28T02:56:19;0.50;;;0.50;;
36497;SDS011;22513;51.222;6.480;2023-12-28T02:58:45;1.38;;;0.50;;
36497;SDS011;22513;51.222;6.480;2023-12-28T03:01:10;0.40;;;0.40;;
36497;SDS011;22513;51.222;6.480;2023-12-28T03:03:36;0.43;;;0.43;;
36497;SDS011;22513;51.222;6.480;2023-12-28T03:06:01;0.38;;;0.35;;
36497;SDS011;22513;51.222;6.480;2023-12-28T03:08:27;0.43;;;0.43;;
36497;SDS011;22513;51.222;6.480;2023-12-28T03:10:52;0.40;;;0.40;;
36497;SDS011;22513;51.222;6.480;2023-12-28T03:13:20;0.40;;;0.40;;
36497;SDS011;22513;51.222;6.480;2023-12-28T03:15:45;0.50;;;0.50;;
36497;SDS011;22513;51.222;6.480;2023-12-28T03:18:11;0.40;;;0.40;;
36497;SDS011;22513;51.222;6.480;2023-12-28T03:20:36;0.40;;;0.40;;
36497;SDS011;22513;51.222;6.480;2023-12-28T03:23:02;0.20;;;0.20;;
36497;SDS011;22513;51.222;6.480;2023-12-28T03:25:28;0.57;;;0.57;;
36497;SDS011;22513;51.222;6.480;2023-12-28T03:27:53;0.30;;;0.30;;
36497;SDS011;22513;51.222;6.480;2023-12-28T03:30:20;0.40;;;0.40;;
36497;SDS011;22513;51.222;6.480;2023-12-28T03:32:45;0.40;;;0.40;;
36497;SDS011;22513;51.222;6.480;2023-12-28T03:35:11;0.40;;;0.40;;
36497;SDS011;22513;51.222;6.480;2023-12-28T03:37:36;0.40;;;0.40;;
36497;SDS011;22513;51.222;6.480;2023-12-28T03:40:02;0.30;;;0.30;;
36497;SDS011;22513;51.222;6.480;2023-12-28T03:42:31;0.50;;;0.50;;
36497;SDS011;22513;51.222;6.480;2023-12-28T03:44:56;0.43;;;0.43;;
36497;SDS011;22513;51.222;6.480;2023-12-28T03:47:22;0.38;;;0.38;;
36497;SDS011;22513;51.222;6.480;2023-12-28T03:49:49;0.50;;;0.47;;
36497;SDS011;22513;51.222;6.480;2023-12-28T03:52:14;0.50;;;0.50;;
36497;SDS011;22513;51.222;6.480;2023-12-28T03:54:40;0.50;;;0.50;;
36497;SDS011;22513;51.222;6.480;2023-12-28T03:57:05;0.52;;;0.52;;
36497;SDS011;22513;51.222;6.480;2023-12-28T03:59:31;0.50;;;0.50;;
36497;SDS011;22513;51.222;6.480;2023-12-28T04:01:57;0.60;;;0.50;;
36497;SDS011;22513;51.222;6.480;2023-12-28T04:04:22;0.45;;;0.45;;
36497;SDS011;22513;51.222;6.480;2023-12-28T04:06:48;0.40;;;0.40;;
36497;SDS011;22513;51.222;6.480;2023-12-28T04:09:13;0.32;;;0.32;;
36497;SDS011;22513;51.222;6.480;2023-12-28T04:11:39;0.40;;;0.40;;
36497;SDS011;22513;51.222;6.480;2023-12-28T04:14:05;0.40;;;0.40;;
36497;SDS011;22513;51.222;6.480;2023-12-28T04:16:30;0.40;;;0.40;;
36497;SDS011;22513;51.222;6.480;2023-12-28T04:18:56;0.50;;;0.50;;
36497;SDS011;22513;51.222;6.480;2023-12-28T04:21:22;0.35;;;0.35;;
36497;SDS011;22513;51.222;6.480;2023-12-28T04:23:47;0.40;;;0.40;;
36497;SDS011;22513;51.222;6.480;2023-12-28T04:26:13;0.85;;;0.50;;
36497;SDS011;22513;51.222;6.480;2023-12-28T04:28:39;0.40;;;0.40;;
36497;SDS011;22513;51.222;6.480;2023-12-28T04:31:05;0.40;;;0.40;;
36497;SDS011;22513;51.222;6.480;2023-12-28T04:33:31;0.40;;;0.40;;
36497;SDS011;22513;51.222;6.480;2023-12-28T04:36:00;0.40;;;0.40;;
36497;SDS011;22513;51.222;6.480;2023-12-28T04:38:28;0.38;;;0.38;;
36497;SDS011;22513;51.222;6.480;2023-12-28T04:40:54;0.50;;;0.50;;
36497;SDS011;22513;51.222;6.480;2023-12-28T04:43:19;0.30;;;0.30;;
36497;SDS011;22513;51.222;6.480;2023-12-28T04:45:45;0.40;;;0.40;;
36497;SDS011;22513;51.222;6.480;2023-12-28T04:48:11;0.43;;;0.43;;
36497;SDS011;22513;51.222;6.480;2023-12-28T04:50:36;0.43;;;0.43;;
36497;SDS011;22513;51.222;6.480;2023-12-28T04:53:02;0.50;;;0.50;;
36497;SDS011;22513;51.222;6.480;2023-12-28T04:55:28;0.35;;;0.35;;
36497;SDS011;22513;51.222;6.480;2023-12-28T04:57:53;0.43;;;0.38;;
36497;SDS011;22513;51.222;6.480;2023-12-28T05:00:19;0.55;;;0.55;;
36497;SDS011;22513;51.222;6.480;2023-12-28T05:02:45;0.30;;;0.30;;
36497;SDS011;22513;51.222;6.480;2023-12-28T05:05:11;0.40;;;0.40;;
36497;SDS011;22513;51.222;6.480;2023-12-28T05:07:37;0.30;;;0.30;;
36497;SDS011;22513;51.222;6.480;2023-12-28T05:10:03;0.40;;;0.40;;
36497;SDS011;22513;51.222;6.480;2023-12-28T05:12:29;0.40;;;0.40;;
36497;SDS011;22513;51.222;6.480;2023-12-28T05:14:55;0.40;;;0.40;;
36497;SDS011;22513;51.222;6.480;2023-12-28T05:17:20;0.68;;;0.40;;
36497;SDS011;22513;51.222;6.480;2023-12-28T05:19:46;0.40;;;0.40;;
36497;SDS011;22513;51.222;6.480;2023-12-28T05:22:14;0.40;;;0.40;;
36497;SDS011;22513;51.222;6.480;2023-12-28T05:24:40;0.40;;;0.40;;
36497;SDS011;22513;51.222;6.480;2023-12-28T05:27:05;0.50;;;0.50;;
36497;SDS011;22513;51.222;6.480;2023-12-28T05:29:31;0.30;;;0.30;;
36497;SDS011;22513;51.222;6.480;2023-12-28T05:31:56;0.30;;;0.30;;
36497;SDS011;22513;51.222;6.480;2023-12-28T05:36:52;0.20;;;0.20;;
36497;SDS011;22513;51.222;6.480;2023-12-28T05:39:17;0.40;;;0.40;;
36497;SDS011;22513;51.222;6.480;2023-12-28T05:41:43;0.40;;;0.40;;
36497;SDS011;22513;51.222;6.480;2023-12-28T05:44:12;0.32;;;0.32;;
36497;SDS011;22513;51.222;6.480;2023-12-28T05:46:38;0.30;;;0.30;;
36497;SDS011;22513;51.222;6.480;2023-12-28T05:49:04;0.30;;;0.30;;
36497;SDS011;22513;51.222;6.480;2023-12-28T05:51:31;0.38;;;0.38;;
36497;SDS011;22513;51.222;6.480;2023-12-28T05:54:06;0.28;;;0.28;;
36497;SDS011;22513;51.222;6.480;2023-12-28T05:56:31;0.35;;;0.35;;
36497;SDS011;22513;51.222;6.480;2023-12-28T05:58:57;0.35;;;0.35;;
36497;SDS011;22513;51.222;6.480;2023-12-28T06:01:23;0.30;;;0.30;;
36497;SDS011;22513;51.222;6.480;2023-12-28T06:03:49;0.25;;;0.25;;
36497;SDS011;22513;51.222;6.480;2023-12-28T06:06:17;0.30;;;0.30;;
36497;SDS011;22513;51.222;6.480;2023-12-28T06:08:43;0.30;;;0.30;;
36497;SDS011;22513;51.222;6.480;2023-12-28T06:11:08;0.30;;;0.30;;
36497;SDS011;22513;51.222;6.480;2023-12-28T06:13:34;0.20;;;0.20;;
36497;SDS011;22513;51.222;6.480;2023-12-28T06:16:00;0.40;;;0.40;;
36497;SDS011;22513;51.222;6.480;2023-12-28T06:18:25;0.30;;;0.30;;
36497;SDS011;22513;51.222;6.480;2023-12-28T06:20:51;0.57;;;0.38;;
36497;SDS011;22513;51.222;6.480;2023-12-28T06:23:16;0.40;;;0.35;;
36497;SDS011;22513;51.222;6.480;2023-12-28T06:25:42;0.95;;;0.28;;
36497;SDS011;22513;51.222;6.480;2023-12-28T06:28:07;0.75;;;0.40;;
36497;SDS011;22513;51.222;6.480;2023-12-28T06:30:33;0.30;;;0.30;;
36497;SDS011;22513;51.222;6.480;2023-12-28T06:32:59;0.40;;;0.40;;
36497;SDS011;22513;51.222;6.480;2023-12-28T06:35:24;0.40;;;0.40;;
36497;SDS011;22513;51.222;6.480;2023-12-28T06:37:50;0.55;;;0.40;;
36497;SDS011;22513;51.222;6.480;2023-12-28T06:40:15;0.32;;;0.32;;
36497;SDS011;22513;51.222;6.480;2023-12-28T06:42:41;0.55;;;0.40;;
36497;SDS011;22513;51.222;6.480;2023-12-28T06:45:08;0.40;;;0.40;;
36497;SDS011;22513;51.222;6.480;2023-12-28T06:47:35;0.30;;;0.30;;
36497;SDS011;22513;51.222;6.480;2023-12-28T06:50:00;0.30;;;0.30;;
36497;SDS011;22513;51.222;6.480;2023-12-28T06:52:26;0.30;;;0.30;;
36497;SDS011;22513;51.222;6.480;2023-12-28T06:54:52;0.35;;;0.35;;
36497;SDS011;22513;51.222;6.480;2023-12-28T06:57:18;0.30;;;0.30;;
36497;SDS011;22513;51.222;6.480;2023-12-28T06:59:44;0.38;;;0.38;;
36497;SDS011;22513;51.222;6.480;2023-12-28T07:02:09;0.30;;;0.30;;
36497;SDS011;22513;51.222;6.480;2023-12-28T07:04:35;0.30;;;0.30;;
36497;SDS011;22513;51.222;6.480;2023-12-28T07:07:01;0.30;;;0.30;;
36497;SDS011;22513;51.222;6.480;2023-12-28T07:09:27;0.30;;;0.30;;
36497;SDS011;22513;51.222;6.480;2023-12-28T07:11:52;0.30;;;0.30;;
36497;SDS011;22513;51.222;6.480;2023-12-28T07:14:18;0.25;;;0.25;;
36497;SDS011;22513;51.222;6.480;2023-12-28T07:16:43;0.30;;;0.30;;
36497;SDS011;22513;51.222;6.480;2023-12-28T07:19:09;0.40;;;0.40;;
36497;SDS011;22513;51.222;6.480;2023-12-28T07:21:34;0.22;;;0.22;;
36497;SDS011;22513;51.222;6.480;2023-12-28T07:24:00;0.20;;;0.20;;
36497;SDS011;22513;51.222;6.480;2023-12-28T07:26:25;0.30;;;0.30;;
36497;SDS011;22513;51.222;6.480;2023-12-28T07:28:51;0.32;;;0.32;;
36497;SDS011;22513;51.222;6.480;2023-12-28T07:31:26;0.30;;;0.30;;
36497;SDS011;22513;51.222;6.480;2023-12-28T07:33:53;0.30;;;0.30;;
36497;SDS011;22513;51.222;6.480;2023-12-28T07:36:19;0.98;;;0.40;;
36497;SDS011;22513;51.222;6.480;2023-12-28T07:38:45;0.40;;;0.40;;
36497;SDS011;22513;51.222;6.480;2023-12-28T07:41:10;0.22;;;0.22;;
36497;SDS011;22513;51.222;6.480;2023-12-28T07:43:36;64.90;;;9.07;;
36497;SDS011;22513;51.222;6.480;2023-12-28T07:46:02;227.77;;;123.70;;
36497;SDS011;22513;51.222;6.480;2023-12-28T07:48:28;518.60;;;183.88;;
36497;SDS011;22513;51.222;6.480;2023-12-28T07:50:55;517.75;;;148.77;;
36497;SDS011;22513;51.222;6.480;2023-12-28T07:53:21;438.85;;;128.65;;
36497;SDS011;22513;51.222;6.480;2023-12-28T07:55:47;82.25;;;27.50;;
36497;SDS011;22513;51.222;6.480;2023-12-28T07:58:13;2.50;;;2.40;;
36497;SDS011;22513;51.222;6.480;2023-12-28T08:00:39;1.60;;;1.50;;
36497;SDS011;22513;51.222;6.480;2023-12-28T08:03:05;1.05;;;1.05;;
36497;SDS011;22513;51.222;6.480;2023-12-28T08:05:30;0.60;;;0.60;;
36497;SDS011;22513;51.222;6.480;2023-12-28T08:07:56;0.40;;;0.40;;
36497;SDS011;22513;51.222;6.480;2023-12-28T08:10:21;0.30;;;0.30;;
36497;SDS011;22513;51.222;6.480;2023-12-28T08:12:47;0.30;;;0.30;;
36497;SDS011;22513;51.222;6.480;2023-12-28T08:15:13;0.30;;;0.30;;
36497;SDS011;22513;51.222;6.480;2023-12-28T08:17:38;0.30;;;0.30;;
36497;SDS011;22513;51.222;6.480;2023-12-28T08:20:05;0.30;;;0.30;;
36497;SDS011;22513;51.222;6.480;2023-12-28T08:22:31;0.25;;;0.25;;
36497;SDS011;22513;51.222;6.480;2023-12-28T08:24:57;0.30;;;0.30;;
36497;SDS011;22513;51.222;6.480;2023-12-28T08:27:23;0.20;;;0.20;;
36497;SDS011;22513;51.222;6.480;2023-12-28T08:29:48;0.30;;;0.30;;
36497;SDS011;22513;51.222;6.480;2023-12-28T08:32:14;0.20;;;0.20;;
36497;SDS011;22513;51.222;6.480;2023-12-28T08:34:40;0.30;;;0.30;;
36497;SDS011;22513;51.222;6.480;2023-12-28T08:37:05;0.30;;;0.30;;
36497;SDS011;22513;51.222;6.480;2023-12-28T08:39:31;0.28;;;0.28;;
36497;SDS011;22513;51.222;6.480;2023-12-28T08:41:57;0.30;;;0.30;;
36497;SDS011;22513;51.222;6.480;2023-12-28T08:44:23;0.20;;;0.20;;
36497;SDS011;22513;51.222;6.480;2023-12-28T08:46:48;0.43;;;0.38;;
36497;SDS011;22513;51.222;6.480;2023-12-28T08:49:14;1.85;;;0.30;;
36497;SDS011;22513;51.222;6.480;2023-12-28T08:51:40;1.65;;;0.40;;
36497;SDS011;22513;51.222;6.480;2023-12-28T08:54:07;0.40;;;0.40;;
36497;SDS011;22513;51.222;6.480;2023-12-28T08:56:34;0.60;;;0.40;;
36497;SDS011;22513;51.222;6.480;2023-12-28T08:59:00;0.60;;;0.50;;
36497;SDS011;22513;51.222;6.480;2023-12-28T09:01:26;0.38;;;0.38;;
36497;SDS011;22513;51.222;6.480;2023-12-28T09:03:54;0.30;;;0.30;;
36497;SDS011;22513;51.222;6.480;2023-12-28T09:06:20;0.52;;;0.35;;
36497;SDS011;22513;51.222;6.480;2023-12-28T09:08:49;0.35;;;0.35;;
36497;SDS011;22513;51.222;6.480;2023-12-28T09:11:16;0.32;;;0.22;;
36497;SDS011;22513;51.222;6.480;2023-12-28T09:13:42;0.22;;;0.22;;
36497;SDS011;22513;51.222;6.480;2023-12-28T09:16:09;0.30;;;0.30;;
36497;SDS011;22513;51.222;6.480;2023-12-28T09:18:36;0.20;;;0.20;;
36497;SDS011;22513;51.222;6.480;2023-12-28T09:21:05;0.45;;;0.30;;
36497;SDS011;22513;51.222;6.480;2023-12-28T09:23:32;0.20;;;0.20;;
36497;SDS011;22513;51.222;6.480;2023-12-28T09:25:58;0.95;;;0.30;;
36497;SDS011;22513;51.222;6.480;2023-12-28T09:28:25;0.40;;;0.40;;
36497;SDS011;22513;51.222;6.480;2023-12-28T09:30:51;0.30;;;0.30;;
36497;SDS011;22513;51.222;6.480;2023-12-28T09:33:16;2.22;;;0.35;;
36497;SDS011;22513;51.222;6.480;2023-12-28T09:35:42;2.10;;;0.90;;
36497;SDS011;22513;51.222;6.480;2023-12-28T09:38:08;36.92;;;33.22;;
36497;SDS011;22513;51.222;6.480;2023-12-28T09:40:35;197.88;;;148.35;;
36497;SDS011;22513;51.222;6.480;2023-12-28T09:43:13;14.82;;;11.52;;
36497;SDS011;22513;51.222;6.480;2023-12-28T09:45:49;1.30;;;0.30;;
36497;SDS011;22513;51.222;6.480;2023-12-28T09:48:15;0.30;;;0.30;;
36497;SDS011;22513;51.222;6.480;2023-12-28T09:50:42;0.35;;;0.30;;
36497;SDS011;22513;51.222;6.480;2023-12-28T09:53:09;0.20;;;0.20;;
36497;SDS011;22513;51.222;6.480;2023-12-28T09:55:35;0.20;;;0.20;;
36497;SDS011;22513;51.222;6.480;2023-12-28T09:58:01;0.40;;;0.40;;
36497;SDS011;22513;51.222;6.480;2023-12-28T10:02:56;0.30;;;0.30;;
36497;SDS011;22513;51.222;6.480;2023-12-28T10:05:21;0.20;;;0.20;;
36497;SDS011;22513;51.222;6.480;2023-12-28T10:07:47;0.20;;;0.20;;
36497;SDS011;22513;51.222;6.480;2023-12-28T10:10:14;0.30;;;0.30;;
36497;SDS011;22513;51.222;6.480;2023-12-28T10:12:39;0.30;;;0.20;;
36497;SDS011;22513;51.222;6.480;2023-12-28T10:15:05;1.48;;;0.20;;
36497;SDS011;22513;51.222;6.480;2023-12-28T10:17:34;0.30;;;0.30;;
36497;SDS011;22513;51.222;6.480;2023-12-28T10:20:00;0.35;;;0.30;;
36497;SDS011;22513;51.222;6.480;2023-12-28T10:22:33;0.20;;;0.20;;
36497;SDS011;22513;51.222;6.480;2023-12-28T10:25:02;0.20;;;0.20;;
36497;SDS011;22513;51.222;6.480;2023-12-28T10:27:28;0.38;;;0.25;;
36497;SDS011;22513;51.222;6.480;2023-12-28T10:29:57;0.20;;;0.20;;
36497;SDS011;22513;51.222;6.480;2023-12-28T10:32:23;0.20;;;0.20;;
36497;SDS011;22513;51.222;6.480;2023-12-28T10:34:52;0.30;;;0.30;;
36497;SDS011;22513;51.222;6.480;2023-12-28T10:37:18;0.35;;;0.35;;
36497;SDS011;22513;51.222;6.480;2023-12-28T10:39:48;0.30;;;0.30;;
36497;SDS011;22513;51.222;6.480;2023-12-28T10:42:22;0.13;;;0.13;;
36497;SDS011;22513;51.222;6.480;2023-12-28T10:44:49;0.40;;;0.40;;
36497;SDS011;22513;51.222;6.480;2023-12-28T10:47:20;0.20;;;0.20;;
36497;SDS011;22513;51.222;6.480;2023-12-28T10:49:49;0.40;;;0.40;;
36497;SDS011;22513;51.222;6.480;2023-12-28T10:52:20;0.22;;;0.22;;
36497;SDS011;22513;51.222;6.480;2023-12-28T10:54:52;0.20;;;0.20;;
36497;SDS011;22513;51.222;6.480;2023-12-28T10:57:27;0.20;;;0.20;;
36497;SDS011;22513;51.222;6.480;2023-12-28T11:00:20;0.40;;;0.40;;
36497;SDS011;22513;51.222;6.480;2023-12-28T11:02:51;0.40;;;0.40;;
36497;SDS011;22513;51.222;6.480;2023-12-28T11:05:19;0.47;;;0.47;;
36497;SDS011;22513;51.222;6.480;2023-12-28T11:07:45;0.30;;;0.30;;
36497;SDS011;22513;51.222;6.480;2023-12-28T11:10:14;0.30;;;0.30;;
36497;SDS011;22513;51.222;6.480;2023-12-28T11:12:42;0.28;;;0.28;;
36497;SDS011;22513;51.222;6.480;2023-12-28T11:15:08;0.30;;;0.30;;
36497;SDS011;22513;51.222;6.480;2023-12-28T11:17:36;0.30;;;0.30;;
36497;SDS011;22513;51.222;6.480;2023-12-28T11:20:03;0.30;;;0.30;;
36497;SDS011;22513;51.222;6.480;2023-12-28T11:22:30;0.17;;;0.17;;
36497;SDS011;22513;51.222;6.480;2023-12-28T11:24:57;0.20;;;0.20;;
36497;SDS011;22513;51.222;6.480;2023-12-28T11:27:23;0.20;;;0.20;;
36497;SDS011;22513;51.222;6.480;2023-12-28T11:29:49;0.30;;;0.30;;
36497;SDS011;22513;51.222;6.480;2023-12-28T11:32:16;0.55;;;0.32;;
36497;SDS011;22513;51.222;6.480;2023-12-28T11:34:44;0.20;;;0.20;;
36497;SDS011;22513;51.222;6.480;2023-12-28T11:37:13;0.40;;;0.40;;
36497;SDS011;22513;51.222;6.480;2023-12-28T11:39:45;0.20;;;0.20;;
36497;SDS011;22513;51.222;6.480;2023-12-28T11:42:18;0.20;;;0.20;;
36497;SDS011;22513;51.222;6.480;2023-12-28T11:44:45;0.20;;;0.20;;
36497;SDS011;22513;51.222;6.480;2023-12-28T11:49:47;0.20;;;0.20;;
36497;SDS011;22513;51.222;6.480;2023-12-28T11:52:26;0.30;;;0.30;;
36497;SDS011;22513;51.222;6.480;2023-12-28T11:54:54;0.40;;;0.30;;
36497;SDS011;22513;51.222;6.480;2023-12-28T11:57:20;0.20;;;0.20;;
36497;SDS011;22513;51.222;6.480;2023-12-28T11:59:48;0.28;;;0.28;;
36497;SDS011;22513;51.222;6.480;2023-12-28T12:02:18;0.28;;;0.28;;
36497;SDS011;22513;51.222;6.480;2023-12-28T12:04:44;0.20;;;0.20;;
36497;SDS011;22513;51.222;6.480;2023-12-28T12:07:10;0.35;;;0.35;;
36497;SDS011;22513;51.222;6.480;2023-12-28T12:09:35;0.30;;;0.30;;
36497;SDS011;22513;51.222;6.480;2023-12-28T12:12:01;0.20;;;0.20;;
36497;SDS011;22513;51.222;6.480;2023-12-28T12:14:27;0.30;;;0.30;;
36497;SDS011;22513;51.222;6.480;2023-12-28T12:16:54;0.20;;;0.20;;
36497;SDS011;22513;51.222;6.480;2023-12-28T12:19:23;0.22;;;0.22;;
36497;SDS011;22513;51.222;6.480;2023-12-28T12:21:51;0.40;;;0.40;;
36497;SDS011;22513;51.222;6.480;2023-12-28T12:24:18;0.25;;;0.25;;
36497;SDS011;22513;51.222;6.480;2023-12-28T12:26:45;0.20;;;0.20;;
36497;SDS011;22513;51.222;6.480;2023-12-28T12:29:11;0.28;;;0.28;;
36497;SDS011;22513;51.222;6.480;2023-12-28T12:31:37;0.20;;;0.20;;
36497;SDS011;22513;51.222;6.480;2023-12-28T12:36:32;0.20;;;0.20;;
36497;SDS011;22513;51.222;6.480;2023-12-28T12:38:58;0.30;;;0.30;;
36497;SDS011;22513;51.222;6.480;2023-12-28T12:41:24;0.30;;;0.30;;
36497;SDS011;22513;51.222;6.480;2023-12-28T12:43:54;0.25;;;0.25;;
36497;SDS011;22513;51.222;6.480;2023-12-28T12:46:21;0.47;;;0.40;;
36497;SDS011;22513;51.222;6.480;2023-12-28T12:48:58;0.30;;;0.30;;
36497;SDS011;22513;51.222;6.480;2023-12-28T12:51:26;0.45;;;0.30;;
36497;SDS011;22513;51.222;6.480;2023-12-28T12:53:58;0.30;;;0.30;;
36497;SDS011;22513;51.222;6.480;2023-12-28T12:56:28;0.60;;;0.60;;
36497;SDS011;22513;51.222;6.480;2023-12-28T12:58:56;0.22;;;0.22;;
36497;SDS011;22513;51.222;6.480;2023-12-28T13:01:23;0.30;;;0.30;;
36497;SDS011;22513;51.222;6.480;2023-12-28T13:03:52;0.45;;;0.30;;
36497;SDS011;22513;51.222;6.480;2023-12-28T13:06:17;0.20;;;0.20;;
36497;SDS011;22513;51.222;6.480;2023-12-28T13:08:47;0.30;;;0.30;;
36497;SDS011;22513;51.222;6.480;2023-12-28T13:11:13;0.40;;;0.20;;
36497;SDS011;22513;51.222;6.480;2023-12-28T13:13:40;0.15;;;0.15;;
36497;SDS011;22513;51.222;6.480;2023-12-28T13:16:06;0.22;;;0.22;;
36497;SDS011;22513;51.222;6.480;2023-12-28T13:18:32;0.28;;;0.28;;
36497;SDS011;22513;51.222;6.480;2023-12-28T13:21:00;0.30;;;0.30;;
36497;SDS011;22513;51.222;6.480;2023-12-28T13:23:26;0.50;;;0.40;;
36497;SDS011;22513;51.222;6.480;2023-12-28T13:25:51;0.40;;;0.40;;
36497;SDS011;22513;51.222;6.480;2023-12-28T13:28:17;0.80;;;0.40;;
36497;SDS011;22513;51.222;6.480;2023-12-28T13:30:43;0.38;;;0.38;;
36497;SDS011;22513;51.222;6.480;2023-12-28T13:33:08;0.98;;;0.60;;
36497;SDS011;22513;51.222;6.480;2023-12-28T13:35:34;0.88;;;0.60;;
36497;SDS011;22513;51.222;6.480;2023-12-28T13:38:00;0.45;;;0.40;;
36497;SDS011;22513;51.222;6.480;2023-12-28T13:40:27;0.30;;;0.30;;
36497;SDS011;22513;51.222;6.480;2023-12-28T13:42:53;0.63;;;0.30;;
36497;SDS011;22513;51.222;6.480;2023-12-28T13:45:19;0.30;;;0.30;;
36497;SDS011;22513;51.222;6.480;2023-12-28T13:47:44;5.13;;;3.70;;
36497;SDS011;22513;51.222;6.480;2023-12-28T13:50:10;786.20;;;170.70;;
36497;SDS011;22513;51.222;6.480;2023-12-28T13:52:36;307.45;;;50.05;;
36497;SDS011;22513;51.222;6.480;2023-12-28T13:55:01;203.32;;;29.17;;
36497;SDS011;22513;51.222;6.480;2023-12-28T13:57:27;488.38;;;62.80;;
36497;SDS011;22513;51.222;6.480;2023-12-28T13:59:53;259.85;;;33.92;;
36497;SDS011;22513;51.222;6.480;2023-12-28T14:02:18;118.45;;;14.57;;
36497;SDS011;22513;51.222;6.480;2023-12-28T14:04:46;206.23;;;24.52;;
36497;SDS011;22513;51.222;6.480;2023-12-28T14:07:12;278.77;;;35.10;;
36497;SDS011;22513;51.222;6.480;2023-12-28T14:09:37;265.75;;;36.67;;
36497;SDS011;22513;51.222;6.480;2023-12-28T14:12:03;130.93;;;18.17;;
36497;SDS011;22513;51.222;6.480;2023-12-28T14:14:29;167.38;;;23.65;;
36497;SDS011;22513;51.222;6.480;2023-12-28T14:16:54;210.00;;;33.22;;
36497;SDS011;22513;51.222;6.480;2023-12-28T14:19:20;56.33;;;9.77;;
36497;SDS011;22513;51.222;6.480;2023-12-28T14:21:46;87.75;;;20.73;;
36497;SDS011;22513;51.222;6.480;2023-12-28T14:24:12;34.28;;;9.00;;
36497;SDS011;22513;51.222;6.480;2023-12-28T14:26:40;9.60;;;3.25;;
36497;SDS011;22513;51.222;6.480;2023-12-28T14:29:08;3.10;;;1.73;;
36497;SDS011;22513;51.222;6.480;2023-12-28T14:31:34;1.55;;;1.25;;
36497;SDS011;22513;51.222;6.480;2023-12-28T14:33:59;1.13;;;1.02;;
36497;SDS011;22513;51.222;6.480;2023-12-28T14:38:57;0.40;;;0.40;;
36497;SDS011;22513;51.222;6.480;2023-12-28T14:41:23;0.57;;;0.50;;
36497;SDS011;22513;51.222;6.480;2023-12-28T14:43:49;0.40;;;0.40;;
36497;SDS011;22513;51.222;6.480;2023-12-28T14:46:14;0.43;;;0.43;;
36497;SDS011;22513;51.222;6.480;2023-12-28T14:48:40;0.30;;;0.30;;
36497;SDS011;22513;51.222;6.480;2023-12-28T14:51:06;0.30;;;0.30;;
36497;SDS011;22513;51.222;6.480;2023-12-28T14:53:31;0.35;;;0.30;;
36497;SDS011;22513;51.222;6.480;2023-12-28T14:55:57;0.30;;;0.30;;